Kezdőlap
METAR-TAF:

METAR-TAF

Repülőterek :

Nanaimo, Brit Columbia, Kanada

földrajzi szélesség: 49-03N, földrajzi hosszúság: 123-52W, magasság: 28 m

Jelenlegi meteorológiai megfigyelések

A jelentés 1 órával és 2 perccel ezelõtt készült, 01:00 UTC
Szélcsend
Hőmérséklet 14°C
Páratartalom 55%
Légköri nyomás 1022 hPa
Látótávolság: 40.2 km
Szórványos felhőzet 7100 lábon

METAR: CYCD 240100Z 00000KT 25SM SCT071 14/05 A3018 RMK AC4 SLP220

Idő: 19:02 (02:02 UTC)

Előrejelzés

A jelentés 2 órával és 24 perccel ezelõtt készült, 23:38 UTC
Az előrejelzés 24-én 00 óra UTC és 24-én 04 óra UTC között érvényes
Különbözõ irányokból fújó szél 3 kt
Látótávolság: 10 km
Szórványos felhőzet 4000 lábon
24-én 00 óra UTC és 24-én 04 óra UTC között ideiglenes
Látótávolság: 10 km
Szakadozott felhőzet 4000 lábon
enyhe záporok

TAF: CYCD 232338Z 2400/2404 VRB03KT P6SM SCT040 TEMPO 2400/2404 P6SM -SHRA BKN040 RMK NXT FCST WILL BE ISSUED AT 241445Z

Meteorológiai megfigyelések és előrejelzések több, mint 4000 repülőtéren (METAR és TAF jelentéseket).

A térképen piros és sárga pontok jelzik az elérhető meteorológiai állomásokat.

Mozgassa az egeret a pont fölött, hogy megjelenjen az állomás neve.

Azután kattintson az időjárási megfigyelések és előrejelzések megtekintéséhez.

A térkép megváltoztatása: kattintson a fekete keresztel jelölt zöld gombra ráközelítéshez, a vonallal jelölt zöld gombra távolításhoz, vagy a zöld nyilakra a szomszédos térképek eléréséhez.


METAR-TAF: